Flight Track Log - Related Links

Times and Time Zones

All times are in EST time to prevent confusion due to time zone crossing. See the EJA831 flight status page for this flight to view local times or setup timezone preferences in your user account.

Time Position Orientation Groundspeed Altitude Reporting Facility
EST Latitude Longitude Course Direction KTS MPH feet Rate Location/Type
Sat 05:55:41 PM 30.0756 -95.5567 32° Northeast 173 199 1,000  Level Houston Center
Sat 05:57:06 PM 30.1208 -95.5236 32° Northeast 182 209 3,500 2,014 Climbing Houston Center
Sat 05:58:07 PM 30.0953 -95.4733 120° Southeast 212 244 5,900 2,615 Climbing Houston Center
Sat 05:59:03 PM 30.0414 -95.4353 149° Southeast 254 292 8,600 2,516 Climbing Houston Center
Sat 05:59:09 PM 30.0436 -95.4353 360° North 233 268 8,500 2,060 Descending Houston Center
Sat 06:00:10 PM 30.0186 -95.3467 108° East 286 329 10,900 2,293 Climbing Houston Center
Sat 06:01:12 PM 30.0025 -95.2369 100° East 337 388 13,200 2,390 Climbing Houston Center
Sat 06:02:13 PM 29.9864 -95.1231 99° East 353 406 15,800 2,488 Climbing Houston Center
Sat 06:03:15 PM 29.9692 -95.0075 100° East 359 413 18,300 2,585 Climbing Houston Center
Sat 06:04:16 PM 29.9514 -94.8928 100° East 361 415 21,100 2,754 Climbing Houston Center
Sat 06:05:17 PM 29.9306 -94.7561 100° East 360 414 23,900 1,902 Climbing Houston Center
Sat 06:06:19 PM 29.9117 -94.6336 100° East 381 438 25,000 537 Climbing Houston Center
Sat 06:07:20 PM 29.8897 -94.4950 100° East 436 502 25,000  Level Houston Center
Sat 06:08:22 PM 29.8678 -94.3539 100° East 447 514 25,000  Level Houston Center
Sat 06:09:23 PM 29.8589 -94.2122 94° East 444 511 25,000  Level Houston Center
Sat 06:10:24 PM 29.8553 -94.0811 92° East 436 502 25,000  Level Houston Center
Sat 06:11:26 PM 29.8681 -93.9150 85° East 437 503 25,000  Level Houston Center
Sat 06:12:27 PM 29.8828 -93.7789 83° East 434 499 25,000  Level Houston Center
Sat 06:13:29 PM 29.8967 -93.6419 83° East 434 499 25,000  Level Houston Center
Sat 06:14:30 PM 29.9117 -93.5053 83° East 435 501 25,000  Level Houston Center
Sat 06:15:32 PM 29.9256 -93.3692 83° East 433 498 25,000  Level Houston Center
Sat 06:16:33 PM 29.9394 -93.2317 83° East 435 501 25,000  Level Houston Center
Sat 06:17:34 PM 29.9531 -93.0950 83° East 433 498 25,000  Level Houston Center
Sat 06:18:36 PM 29.9700 -92.9306 83° East 434 499 25,000  Level Houston Center
Sat 06:19:37 PM 29.9808 -92.7925 85° East 434 499 25,000  Level Houston Center
Sat 06:20:39 PM 29.9925 -92.6539 84° East 435 501 25,000  Level Houston Center
Sat 06:21:40 PM 30.0028 -92.5147 85° East 436 502 25,000  Level Houston Center
Sat 06:22:42 PM 30.0139 -92.3694 85° East 453 521 25,000  Level Houston Center
Sat 06:23:43 PM 30.0253 -92.2189 85° East 468 539 25,000  Level Houston Center
Sat 06:24:44 PM 30.0372 -92.0678 85° East 474 545 25,000 -1,024 Level Houston Center
Sat 06:25:46 PM 30.0500 -91.8900 85° East 467 537 22,900 -2,049 Descending Houston Center
Sat 06:26:47 PM 30.0608 -91.7514 85° East 441 507 20,800 -1,805 Descending Houston Center
Sat 06:27:49 PM 30.0694 -91.6294 85° East 429 494 19,200 -1,512 Descending Houston Center
Sat 06:28:50 PM 30.0794 -91.4981 85° East 412 474 17,700 -1,623 Descending Houston Center
Sat 06:29:51 PM 30.0872 -91.3775 86° East 383 441 15,900 -2,000 Descending Houston Center
Sat 06:30:11 PM 30.0919 -91.3161 85° East 366 421 15,000 -2,129 Descending Houston Center
Sat 06:30:53 PM 30.0975 -91.2342 85° East 376 433 13,700 -1,800 Descending Houston Center
Sat 06:31:11 PM 30.0994 -91.1956 87° East 382 440 13,200 -1,770 Descending Houston Center
Sat 06:31:54 PM 30.1061 -91.1136 85° East 378 435 11,900 -1,770 Descending Houston Center
Sat 06:32:12 PM 30.1092 -91.0753 85° East 378 435 11,400 -885 Descending Houston Center
Sat 06:32:55 PM 30.1136 -90.9989 86° East 363 418 11,000 -393 Descending Houston Center
Sat 06:33:13 PM 30.1108 -90.9669 96° East 334 384 11,000 -871 Level Houston Center
Sat 06:33:57 PM 30.0892 -90.9053 112° Southeast 317 365 10,100 -1,400 Descending Houston Center
Sat 06:34:13 PM 30.0792 -90.8767 112° Southeast 290 334 9,600 -1,082 Descending Houston Center
Sat 06:34:58 PM 30.0581 -90.8178 112° Southeast 300 345 9,000 -590 Descending Houston Center
Sat 06:35:14 PM 30.0478 -90.7914 114° Southeast 288 331 9,000 -197 Level Houston Center
Sat 06:35:59 PM 30.0286 -90.7339 111° Southeast 290 334 8,800 -896 Descending Houston Center
Sat 06:36:21 PM 30.0139 -90.6942 113° Southeast 285 328 8,000 -1,645 Descending Houston Center
Sat 06:37:01 PM 29.9989 -90.6519 112° Southeast 285 328 7,100 -1,700 Descending Houston Center
Sat 06:37:21 PM 29.9844 -90.6111 112° Southeast 275 316 6,300 -1,672 Descending Houston Center
Sat 06:38:02 PM 29.9700 -90.5692 112° Southeast 281 323 5,400 -1,164 Descending Houston Center
Sat 06:38:28 PM 29.9528 -90.5236 114° Southeast 277 319 5,000 -393 Descending Houston Center
Sat 06:39:03 PM 29.9364 -90.4736 111° Southeast 276 318 5,000  Level Houston Center
Sat 06:39:23 PM 29.9256 -90.4503 118° Southeast 268 308 5,000  Level Houston Center
Sat 06:40:05 PM 29.9072 -90.3944 111° Southeast 272 313 5,000 -329 Level Houston Center
Sat 06:40:36 PM 29.8914 -90.3533 114° Southeast 274 315 4,600 -1,279 Descending Houston Center
Sat 06:41:06 PM 29.8769 -90.3139 113° Southeast 273 314 3,700 -1,500 Descending Houston Center
Sat 06:41:36 PM 29.8617 -90.2728 113° Southeast 270 311 3,100 -689 Descending Houston Center
Sat 06:42:07 PM 29.8486 -90.2372 113° Southeast 270 311 3,000 -98 Descending Houston Center
Sat 06:42:37 PM 29.8367 -90.2044 113° Southeast 195 224 3,000  Level Houston Center
Sat 06:43:09 PM 29.8283 -90.1814 113° Southeast 224 258 3,000  Level Houston Center
Sat 06:43:31 PM 29.8206 -90.1547 109° East 188 216 3,000  Level Houston Center
Sat 06:44:10 PM 29.8264 -90.1183 80° East 216 249 3,000  Level Houston Center
Sat 06:44:32 PM 29.8331 -90.0869 76° East 203 234 3,000  Level Houston Center
Sat 06:45:11 PM 29.8414 -90.0586 71° East 202 232 3,000  Level Houston Center
Sat 06:45:27 PM 29.8461 -90.0361 76° East 194 223 3,000 -97 Level Houston Center
Sat 06:46:13 PM 29.8800 -90.0286 11° North 212 244 2,900 -400 Descending Houston Center
Sat 06:46:27 PM 29.9022 -90.0289 359° North 192 221 2,600 -689 Descending Houston Center
Sat 06:47:14 PM 29.9278 -90.0286 North 188 216 2,200 -689 Descending Houston Center
Sat 06:47:28 PM 29.9419 -90.0297 356° North 124 143 1,900 -787 Descending Houston Center
Sat 06:48:15 PM 29.9678 -90.0289 North 146 168 1,400 -590 Descending Houston Center
Sat 06:48:29 PM 29.9733 -90.0283 North 98 113 1,300 -590 Descending Houston Center
Sat 06:49:16 PM 29.9961 -90.0294 358° North 120 138 800 -556 Descending Houston Center
Sat 06:49:23 PM 30.0003 -90.0297 357° North 102 117 800 -484 Level Houston Center
Sat 06:50:18 PM 30.0244 -90.0300 359° North 108 124 300 -545 Descending Houston Center

Login

Don't have an account? Register now (free) for customized features, flight alerts, and more!